Time;durP1;ratioP1;P1;durP2;ratioP2;P2;SDS_P1;SDS_P2;PMS_P1;PMS_P2;Temp;Humidity;BMP_temperature;BMP_pressure;BME280_temperature;BME280_humidity;BME280_pressure;Samples;Min_cycle;Max_cycle;Signal;HPM_P1;HPM_P2
2022/02/22 00:00:02;;;;;;;44.80;8.00;;;;;;;11.11;66.40;101137.91;5054156;28;20032;-88
2022/02/22 00:02:28;;;;;;;51.28;9.20;;;;;;;11.06;66.01;101134.72;5055093;28;20040;-88
2022/02/22 00:04:53;;;;;;;36.60;7.50;;;;;;;11.26;66.20;101132.72;5055399;28;20025;-87
2022/02/22 00:07:18;;;;;;;49.22;9.50;;;;;;;11.26;65.41;101127.47;5055251;28;20025;-88
2022/02/22 00:09:44;;;;;;;39.47;8.13;;;;;;;11.18;65.55;101124.44;5055391;28;20108;-88
2022/02/22 00:12:10;;;;;;;47.45;8.93;;;;;;;11.55;64.67;101114.31;5055047;28;20459;-88
2022/02/22 00:14:35;;;;;;;52.15;9.27;;;;;;;11.57;64.26;101107.19;5038784;28;20041;-88
2022/02/22 00:17:00;;;;;;;41.45;8.77;;;;;;;11.58;64.46;101101.00;5035181;28;20018;-87
2022/02/22 00:19:26;;;;;;;39.85;7.60;;;;;;;11.63;64.06;101104.19;5034852;28;20036;-88
2022/02/22 00:21:54;;;;;;;40.17;7.45;;;;;;;11.59;64.35;101100.06;5035180;28;20104;-88
2022/02/22 00:24:19;;;;;;;41.75;8.05;;;;;;;11.59;64.18;101108.81;5034987;28;20029;-88
2022/02/22 00:26:45;;;;;;;40.13;8.18;;;;;;;11.62;64.40;101107.78;5040205;28;20104;-89
2022/02/22 00:29:11;;;;;;;41.20;9.15;;;;;;;11.59;64.47;101102.69;5053242;28;20035;-87
2022/02/22 00:31:37;;;;;;;55.38;9.60;;;;;;;11.64;64.22;101092.72;5060724;28;20395;-88
2022/02/22 00:34:03;;;;;;;53.38;8.48;;;;;;;11.61;64.03;101098.16;5061513;28;20029;-88
2022/02/22 00:36:30;;;;;;;45.03;9.23;;;;;;;11.60;64.30;101089.44;5062063;28;20048;-88
2022/02/22 00:38:55;;;;;;;49.30;9.00;;;;;;;11.55;64.12;101093.28;5062531;28;20176;-88
2022/02/22 00:41:21;;;;;;;44.97;8.70;;;;;;;11.51;64.17;101082.09;5062077;28;20075;-88
2022/02/22 00:43:46;;;;;;;58.05;9.45;;;;;;;11.49;64.19;101079.59;5045265;28;20041;-88
2022/02/22 00:46:11;;;;;;;45.55;9.27;;;;;;;11.48;64.55;101074.41;5035520;28;20029;-88
2022/02/22 00:48:37;;;;;;;41.83;8.43;;;;;;;11.60;64.19;101076.28;5035288;28;20105;-88
2022/02/22 00:51:02;;;;;;;47.97;9.65;;;;;;;11.55;64.29;101067.81;5035400;28;20427;-88
2022/02/22 00:53:28;;;;;;;50.10;9.07;;;;;;;11.62;64.11;101065.69;5035138;28;20022;-88
2022/02/22 00:55:53;;;;;;;52.38;10.93;;;;;;;11.65;64.15;101068.97;5035207;28;20105;-88
2022/02/22 00:58:19;;;;;;;50.90;9.18;;;;;;;11.64;64.31;101066.44;5040987;28;20476;-89
2022/02/22 01:00:44;;;;;;;51.83;8.80;;;;;;;11.67;64.28;101063.59;5054129;28;20471;-88
2022/02/22 01:03:09;;;;;;;46.72;8.68;;;;;;;11.70;64.30;101071.31;5052951;28;20111;-88
2022/02/22 01:05:35;;;;;;;59.80;10.60;;;;;;;11.60;65.03;101064.94;5054633;28;20021;-88
2022/02/22 01:08:02;;;;;;;54.05;8.93;;;;;;;11.63;64.81;101068.22;5054403;28;20025;-88
2022/02/22 01:10:28;;;;;;;36.70;7.97;;;;;;;11.76;64.47;101070.94;5054437;28;20029;-87
2022/02/22 01:12:53;;;;;;;55.40;9.82;;;;;;;11.67;65.02;101063.59;5052464;28;20029;-88
2022/02/22 01:15:19;;;;;;;60.08;10.48;;;;;;;11.72;65.18;101064.16;5050907;28;20032;-88
2022/02/22 01:17:44;;;;;;;53.88;9.65;;;;;;;11.58;65.10;101041.34;5054286;28;20033;-88
2022/02/22 01:20:10;;;;;;;55.88;9.95;;;;;;;11.66;65.56;101056.66;5054078;28;20159;-88
2022/02/22 01:22:36;;;;;;;51.65;9.40;;;;;;;11.73;65.63;101052.72;5054217;28;20458;-88
2022/02/22 01:25:06;;;;;;;54.63;9.43;;;;;;;11.89;64.98;101050.00;5054284;28;20390;-87
2022/02/22 01:27:31;;;;;;;50.42;8.63;;;;;;;11.69;65.62;101045.97;5053951;28;20056;-87
2022/02/22 01:29:57;;;;;;;52.90;10.23;;;;;;;11.69;65.90;101053.84;5054199;28;20407;-88
2022/02/22 01:32:22;;;;;;;46.95;8.15;;;;;;;11.90;65.57;101054.31;5053765;28;20118;-88
2022/02/22 01:34:48;;;;;;;38.63;7.10;;;;;;;12.13;64.75;101049.38;5053946;28;20028;-88
2022/02/22 01:37:13;;;;;;;47.00;7.63;;;;;;;12.19;64.78;101052.44;5053879;28;20035;-88
2022/02/22 01:39:39;;;;;;;39.78;8.43;;;;;;;11.86;65.84;101044.88;5053429;28;20104;-88
2022/02/22 01:42:04;;;;;;;45.65;7.88;;;;;;;11.83;66.30;101040.66;5053625;28;20036;-88
2022/02/22 01:44:30;;;;;;;42.67;7.85;;;;;;;11.76;66.36;101022.72;5045066;28;20059;-87
2022/02/22 01:47:00;;;;;;;48.15;7.80;;;;;;;11.73;67.10;101020.28;5033359;28;20025;-88
2022/02/22 01:49:26;;;;;;;54.15;10.07;;;;;;;11.92;66.79;101020.00;5033468;28;20052;-88
2022/02/22 01:51:52;;;;;;;41.65;7.90;;;;;;;12.03;66.78;101022.81;5033612;28;20026;-87
2022/02/22 01:54:19;;;;;;;34.50;6.25;;;;;;;11.95;66.87;101014.53;5033396;28;20029;-88
2022/02/22 01:56:45;;;;;;;33.70;6.72;;;;;;;11.92;66.87;100994.53;5033341;28;20027;-89
2022/02/22 01:59:11;;;;;;;39.83;6.43;;;;;;;12.07;66.73;101006.69;5034116;28;20079;-88
2022/02/22 02:01:37;;;;;;;64.07;7.65;;;;;;;12.09;67.55;101003.97;5034086;28;20053;-87
2022/02/22 02:04:05;;;;;;;51.53;8.40;;;;;;;12.02;67.52;100985.09;5033115;28;20025;-87
2022/02/22 02:06:33;;;;;;;38.05;6.25;;;;;;;12.07;67.82;100984.81;5033278;28;20661;-88
2022/02/22 02:08:58;;;;;;;36.17;6.75;;;;;;;12.08;67.93;100986.47;5033064;28;20414;-88
2022/02/22 02:11:23;;;;;;;32.55;5.43;;;;;;;12.07;68.05;100984.81;5032839;28;20026;-88
2022/02/22 02:13:49;;;;;;;27.35;5.35;;;;;;;12.13;68.07;100984.41;5033768;28;20467;-87
2022/02/22 02:16:14;;;;;;;28.38;4.95;;;;;;;12.13;68.01;100973.88;5033185;28;20522;-87
2022/02/22 02:18:39;;;;;;;33.97;6.28;;;;;;;12.15;67.75;100958.81;5032957;28;20116;-87
2022/02/22 02:21:06;;;;;;;43.05;5.80;;;;;;;12.21;67.91;100968.13;5032857;28;20067;-87
2022/02/22 02:23:31;;;;;;;34.58;6.82;;;;;;;12.16;68.19;100957.03;5032657;28;20022;-88
2022/02/22 02:25:57;;;;;;;30.45;7.18;;;;;;;12.23;67.87;100953.91;5032969;28;20507;-88
2022/02/22 02:28:23;;;;;;;39.33;5.90;;;;;;;12.19;68.13;100944.50;5032947;28;20029;-88
2022/02/22 02:30:49;;;;;;;35.00;5.55;;;;;;;12.16;68.77;100936.81;5046177;28;20021;-88
2022/02/22 02:33:15;;;;;;;20.15;3.63;;;;;;;12.22;68.43;100943.47;5052526;28;20456;-88
2022/02/22 02:35:40;;;;;;;26.48;5.10;;;;;;;12.20;68.93;100935.66;5052596;28;20055;-88
2022/02/22 02:38:06;;;;;;;30.00;4.68;;;;;;;12.20;68.85;100943.56;5052419;28;20049;-87
2022/02/22 02:40:31;;;;;;;25.15;5.65;;;;;;;12.19;69.07;100941.88;5052356;28;20467;-88
2022/02/22 02:42:56;;;;;;;36.45;5.18;;;;;;;12.20;69.45;100934.81;5052358;28;20028;-87
2022/02/22 02:45:22;;;;;;;27.85;4.00;;;;;;;12.27;69.31;100933.47;5050644;28;20025;-87
2022/02/22 02:47:48;;;;;;;25.35;4.05;;;;;;;12.22;69.70;100925.91;5052251;28;20125;-88
2022/02/22 02:50:13;;;;;;;26.67;3.95;;;;;;;12.18;69.77;100918.28;5052392;28;20032;-88
2022/02/22 02:52:38;;;;;;;15.10;3.17;;;;;;;12.22;70.51;100931.16;5051999;28;20040;-88
2022/02/22 02:55:04;;;;;;;22.35;4.30;;;;;;;12.20;70.82;100926.91;5052310;28;20460;-87
2022/02/22 02:57:30;;;;;;;20.98;3.80;;;;;;;12.29;70.59;100924.53;5052290;28;20025;-88
2022/02/22 02:59:56;;;;;;;20.50;3.50;;;;;;;12.34;70.45;100931.25;5050126;28;20064;-88
2022/02/22 03:02:22;;;;;;;32.20;4.63;;;;;;;12.31;70.95;100929.69;5052080;28;20390;-88
2022/02/22 03:04:47;;;;;;;18.95;3.47;;;;;;;12.33;70.90;100921.69;5052005;28;20029;-88
2022/02/22 03:07:13;;;;;;;19.05;3.28;;;;;;;12.40;70.76;100920.31;5052033;28;20025;-88
2022/02/22 03:09:38;;;;;;;13.65;3.45;;;;;;;12.35;71.46;100914.53;5051996;28;20025;-87
2022/02/22 03:12:04;;;;;;;13.98;2.95;;;;;;;12.42;71.04;100916.66;5051909;28;20025;-88
2022/02/22 03:14:29;;;;;;;18.20;3.05;;;;;;;12.23;71.97;100906.50;5050200;28;20067;-88
2022/02/22 03:16:55;;;;;;;12.32;2.30;;;;;;;12.18;72.78;100908.59;5042929;28;20462;-88
2022/02/22 03:19:20;;;;;;;13.05;2.47;;;;;;;12.16;72.75;100902.59;5031857;28;20220;-88
2022/02/22 03:21:45;;;;;;;13.27;2.70;;;;;;;12.29;72.65;100879.75;5031779;28;20116;-88
2022/02/22 03:24:11;;;;;;;15.02;2.65;;;;;;;12.42;72.25;100885.06;5031447;28;20029;-88
2022/02/22 03:26:37;;;;;;;15.00;2.67;;;;;;;12.37;72.38;100883.66;5031811;28;20030;-88
2022/02/22 03:29:03;;;;;;;17.52;2.95;;;;;;;12.52;72.25;100873.88;5030428;28;20095;-88
2022/02/22 03:31:29;;;;;;;15.35;3.55;;;;;;;12.58;71.66;100869.03;5037567;28;20025;-88
2022/02/22 03:33:56;;;;;;;13.38;2.25;;;;;;;12.64;71.60;100868.59;5051733;28;20275;-87
2022/02/22 03:36:22;;;;;;;12.32;2.78;;;;;;;12.66;71.79;100865.88;5051623;28;20025;-88
2022/02/22 03:38:48;;;;;;;12.23;2.55;;;;;;;12.55;72.58;100877.13;5051562;28;20028;-88
2022/02/22 03:41:14;;;;;;;18.10;3.25;;;;;;;12.61;72.33;100863.53;5051342;28;20025;-88
2022/02/22 03:43:40;;;;;;;13.10;2.42;;;;;;;12.60;72.27;100866.28;5050115;28;20028;-88
2022/02/22 03:46:05;;;;;;;11.07;2.30;;;;;;;12.56;72.46;100860.41;5048986;28;20029;-88
2022/02/22 03:48:30;;;;;;;14.43;2.75;;;;;;;12.59;72.27;100854.06;5049738;28;20040;-88
2022/02/22 03:50:56;;;;;;;20.55;3.08;;;;;;;12.62;72.46;100853.88;5051378;28;20112;-88
2022/02/22 03:53:21;;;;;;;12.48;2.80;;;;;;;12.70;72.25;100851.53;5051462;28;20025;-88
2022/02/22 03:55:47;;;;;;;12.70;2.92;;;;;;;12.65;72.38;100854.47;5051352;28;20067;-88
2022/02/22 03:58:14;;;;;;;14.82;2.35;;;;;;;12.66;72.71;100845.63;5049834;28;20052;-88
2022/02/22 04:00:39;;;;;;;9.45;2.47;;;;;;;12.74;72.79;100855.66;5051205;28;20036;-88
2022/02/22 04:03:05;;;;;;;10.68;1.75;;;;;;;12.79;72.53;100856.16;5051394;28;20021;-88
2022/02/22 04:05:31;;;;;;;8.05;1.77;;;;;;;12.82;72.95;100844.56;5048493;28;20028;-88
2022/02/22 04:07:57;;;;;;;17.30;2.05;;;;;;;12.91;72.24;100841.25;5031474;28;20104;-88
2022/02/22 04:10:22;;;;;;;11.60;2.60;;;;;;;12.90;72.62;100842.22;5034744;28;20518;-88
2022/02/22 04:12:48;;;;;;;13.43;2.17;;;;;;;12.97;72.27;100834.72;5040638;28;20048;-88
2022/02/22 04:15:14;;;;;;;12.60;1.90;;;;;;;12.94;72.50;100827.88;5039697;28;20053;-89
2022/02/22 04:17:39;;;;;;;11.07;1.95;;;;;;;13.05;72.01;100827.97;5041544;28;20021;-87
2022/02/22 04:20:06;;;;;;;11.68;1.55;;;;;;;13.24;71.61;100818.72;5049562;28;20035;-87
2022/02/22 04:22:32;;;;;;;10.88;2.17;;;;;;;13.07;72.23;100812.00;5058278;28;20555;-88
2022/02/22 04:24:57;;;;;;;15.65;2.22;;;;;;;13.23;71.62;100820.53;5041877;28;20033;-87
2022/02/22 04:27:22;;;;;;;11.82;1.77;;;;;;;13.17;71.78;100813.06;5042099;28;20147;-88
2022/02/22 04:29:48;;;;;;;6.55;1.35;;;;;;;13.13;72.19;100808.09;5051823;28;20025;-88
2022/02/22 04:32:13;;;;;;;14.02;2.45;;;;;;;13.13;72.12;100808.09;5051716;28;20056;-88
2022/02/22 04:34:39;;;;;;;16.85;2.83;;;;;;;13.07;71.97;100810.25;5051884;28;20055;-88
2022/02/22 04:37:04;;;;;;;9.90;1.70;;;;;;;13.28;72.13;100809.63;5053045;28;20029;-88
2022/02/22 04:39:30;;;;;;;15.63;3.13;;;;;;;13.12;72.38;100809.91;5055078;28;20044;-87
2022/02/22 04:41:56;;;;;;;16.00;2.63;;;;;;;13.13;72.55;100800.19;5055190;28;20033;-88
2022/02/22 04:44:21;;;;;;;12.75;2.63;;;;;;;13.22;72.13;100796.91;5055127;28;20123;-88
2022/02/22 04:46:47;;;;;;;14.52;3.72;;;;;;;13.27;72.18;100792.97;5041401;28;20033;-88
2022/02/22 04:49:12;;;;;;;14.63;2.55;;;;;;;13.27;72.09;100781.59;5034717;28;20035;-87
2022/02/22 04:51:42;;;;;;;14.95;2.38;;;;;;;13.27;72.25;100781.59;5043165;28;20029;-88
2022/02/22 04:54:08;;;;;;;18.38;2.63;;;;;;;13.34;71.86;100776.72;5053790;28;20086;-87
2022/02/22 04:56:34;;;;;;;16.05;2.50;;;;;;;13.36;71.77;100778.28;5054246;28;20108;-87
2022/02/22 04:59:00;;;;;;;20.20;3.40;;;;;;;13.45;71.84;100774.97;5054217;28;20033;-89
2022/02/22 05:01:25;;;;;;;18.63;2.30;;;;;;;13.35;72.23;100759.94;5052560;28;20203;-89
2022/02/22 05:03:50;;;;;;;13.45;2.67;;;;;;;13.58;71.33;100766.97;5053746;28;20463;-88
2022/02/22 05:06:16;;;;;;;10.90;1.95;;;;;;;13.46;71.86;100760.81;5054353;28;20060;-88
2022/02/22 05:08:41;;;;;;;17.95;2.97;;;;;;;13.50;71.74;100761.44;5054122;28;20029;-88
2022/02/22 05:11:07;;;;;;;14.45;2.10;;;;;;;13.53;71.36;100755.94;5054013;28;20082;-89
2022/02/22 05:13:33;;;;;;;21.58;2.80;;;;;;;13.52;71.53;100764.81;5054307;28;20383;-89
2022/02/22 05:15:58;;;;;;;25.25;3.45;;;;;;;13.26;72.64;100762.25;5044738;28;20021;-89
2022/02/22 05:18:24;;;;;;;20.83;3.95;;;;;;;13.36;72.39;100764.28;5034292;28;20099;-89
2022/02/22 05:20:55;;;;;;;26.55;3.83;;;;;;;13.44;72.26;100761.91;5034185;28;20026;-89
2022/02/22 05:23:25;;;;;;;23.85;4.53;;;;;;;13.58;71.90;100764.34;5034213;28;20033;-88
2022/02/22 05:25:50;;;;;;;33.28;4.20;;;;;;;13.69;71.51;100751.19;5033675;28;20033;-88
2022/02/22 05:28:17;;;;;;;26.88;4.03;;;;;;;13.69;71.57;100755.63;5033811;28;20083;-88
2022/02/22 05:30:42;;;;;;;31.80;4.70;;;;;;;13.63;71.60;100740.28;5033820;28;20049;-88
2022/02/22 05:33:08;;;;;;;33.55;5.15;;;;;;;13.77;70.74;100749.78;5035007;28;20064;-88
2022/02/22 05:35:33;;;;;;;18.92;3.35;;;;;;;13.86;70.54;100747.28;5033827;28;20032;-88
2022/02/22 05:37:59;;;;;;;21.73;4.25;;;;;;;13.73;71.32;100743.06;5033787;28;20029;-88
2022/02/22 05:40:25;;;;;;;23.25;4.65;;;;;;;13.77;70.65;100737.41;5033577;28;20033;-88
2022/02/22 05:42:51;;;;;;;28.83;4.40;;;;;;;13.92;70.33;100734.56;5041154;28;20021;-88
2022/02/22 05:45:16;;;;;;;35.67;4.38;;;;;;;13.85;69.91;100724.47;5052449;28;20041;-88
2022/02/22 05:47:42;;;;;;;29.30;5.35;;;;;;;13.91;70.38;100719.69;5038740;28;20030;-88
2022/02/22 05:50:08;;;;;;;28.73;5.35;;;;;;;14.00;69.84;100721.59;5032967;28;20061;-89
2022/02/22 05:52:33;;;;;;;25.92;5.20;;;;;;;14.21;68.83;100711.19;5033267;28;20427;-88
2022/02/22 05:54:59;;;;;;;26.20;4.72;;;;;;;14.05;69.64;100708.91;5048982;28;20025;-88
2022/02/22 05:57:24;;;;;;;26.20;4.45;;;;;;;13.91;70.07;100701.22;5033189;28;20108;-88
2022/02/22 05:59:50;;;;;;;21.75;3.45;;;;;;;13.98;69.66;100691.84;5033329;28;20025;-88
2022/02/22 06:02:16;;;;;;;35.67;5.70;;;;;;;13.85;69.82;100682.25;5034167;28;20041;-88
2022/02/22 06:04:41;;;;;;;28.27;4.57;;;;;;;13.87;70.10;100685.59;5033225;28;20460;-88
2022/02/22 06:07:06;;;;;;;23.65;3.97;;;;;;;13.88;70.04;100681.16;5033294;28;20095;-88
2022/02/22 06:09:32;;;;;;;24.35;3.97;;;;;;;13.84;69.80;100664.75;5032866;28;20083;-88
2022/02/22 06:11:57;;;;;;;34.70;5.85;;;;;;;13.80;69.93;100657.16;5033173;28;20026;-88
2022/02/22 06:14:22;;;;;;;30.60;4.78;;;;;;;13.95;69.26;100649.84;5033075;28;20029;-88
2022/02/22 06:16:48;;;;;;;20.98;3.88;;;;;;;13.91;69.69;100649.25;5033877;28;20025;-88
2022/02/22 06:19:14;;;;;;;29.17;4.65;;;;;;;13.95;69.21;100642.78;5032779;28;20026;-89
2022/02/22 06:21:39;;;;;;;25.42;4.97;;;;;;;14.04;69.07;100649.97;5032746;28;20021;-88
2022/02/22 06:24:05;;;;;;;28.50;4.25;;;;;;;14.04;68.91;100644.69;5032744;28;20022;-88
2022/02/22 06:26:31;;;;;;;22.73;4.60;;;;;;;13.97;69.39;100642.66;5032701;28;20107;-88
2022/02/22 06:28:56;;;;;;;26.58;4.53;;;;;;;14.00;68.60;100637.13;5032655;28;20390;-88
2022/02/22 06:31:22;;;;;;;20.08;3.50;;;;;;;13.82;69.29;100618.28;5033572;28;20033;-88
2022/02/22 06:33:47;;;;;;;26.48;4.05;;;;;;;13.76;69.58;100616.97;5032583;28;20025;-88
2022/02/22 06:36:12;;;;;;;27.40;5.25;;;;;;;13.84;69.01;100619.00;5032766;28;20088;-88
2022/02/22 06:38:38;;;;;;;26.13;5.07;;;;;;;13.56;69.58;100610.59;5032653;28;20025;-88
2022/02/22 06:41:03;;;;;;;26.27;4.30;;;;;;;13.97;68.35;100618.91;5032431;28;20028;-88
2022/02/22 06:43:29;;;;;;;30.75;5.13;;;;;;;13.94;67.93;100605.94;5032337;28;20476;-88
2022/02/22 06:45:54;;;;;;;38.28;6.70;;;;;;;13.97;68.00;100600.41;5033496;28;20040;-88
2022/02/22 06:48:19;;;;;;;22.00;4.55;;;;;;;14.12;67.81;100601.84;5032235;28;20079;-88
2022/02/22 06:50:45;;;;;;;26.98;4.45;;;;;;;14.12;67.74;100607.13;5032524;28;20391;-88
2022/02/22 06:53:11;;;;;;;24.52;3.97;;;;;;;14.08;67.70;100606.53;5032338;28;20022;-88
2022/02/22 06:55:38;;;;;;;28.13;4.22;;;;;;;14.10;66.94;100582.66;5032356;28;20021;-88
2022/02/22 06:58:06;;;;;;;27.08;4.88;;;;;;;14.05;67.59;100587.44;5032055;28;20100;-88
2022/02/22 07:00:33;;;;;;;22.67;4.47;;;;;;;14.17;66.93;100586.47;5032357;28;20033;-88
2022/02/22 07:02:59;;;;;;;21.77;3.53;;;;;;;14.21;66.52;100579.13;5031616;28;20529;-88
2022/02/22 07:05:24;;;;;;;32.33;4.28;;;;;;;14.18;66.44;100569.66;5032353;28;20025;-88
2022/02/22 07:07:50;;;;;;;17.48;4.13;;;;;;;14.23;66.28;100570.13;5031766;28;20494;-88
2022/02/22 07:10:16;;;;;;;23.67;4.45;;;;;;;14.23;66.41;100570.13;5031965;28;20059;-89
2022/02/22 07:12:43;;;;;;;22.83;4.22;;;;;;;14.22;66.47;100568.47;5032012;28;20475;-88
2022/02/22 07:15:09;;;;;;;20.42;4.13;;;;;;;14.08;66.87;100579.28;5032062;28;20439;-88
2022/02/22 07:17:48;;;;;;;31.25;4.70;;;;;;;13.83;67.61;100583.03;5045323;28;20029;-88
2022/02/22 07:20:14;;;;;;;21.15;4.82;;;;;;;14.04;67.02;100580.47;5051653;28;20025;-88
2022/02/22 07:22:41;;;;;;;31.02;4.68;;;;;;;14.12;66.17;100582.50;5051787;28;20106;-89
2022/02/22 07:25:08;;;;;;;25.20;5.28;;;;;;;14.04;66.38;100577.84;5051722;28;20025;-88
2022/02/22 07:27:33;;;;;;;22.00;4.35;;;;;;;14.00;66.11;100577.25;5051726;28;20032;-88
2022/02/22 07:29:59;;;;;;;22.48;4.13;;;;;;;14.32;64.78;100578.28;5051607;28;20037;-89
2022/02/22 07:32:24;;;;;;;24.13;4.30;;;;;;;13.93;65.68;100572.59;5037635;28;20056;-88
2022/02/22 07:34:49;;;;;;;23.88;4.55;;;;;;;14.25;64.76;100586.69;5031748;28;20030;-88
2022/02/22 07:37:15;;;;;;;24.10;4.15;;;;;;;14.20;65.06;100580.13;5031691;28;20527;-88
2022/02/22 07:39:40;;;;;;;26.80;5.35;;;;;;;14.30;64.74;100581.03;5032828;28;20716;-88
2022/02/22 07:42:06;;;;;;;25.25;4.25;;;;;;;14.27;64.88;100586.56;5048586;28;20041;-88
2022/02/22 07:44:31;;;;;;;24.75;4.40;;;;;;;14.27;65.08;100587.38;5045825;28;20028;-88
2022/02/22 07:46:56;;;;;;;28.05;4.75;;;;;;;14.32;64.86;100581.75;5048641;28;20025;-88
2022/02/22 07:49:22;;;;;;;24.63;5.35;;;;;;;14.25;64.83;100568.19;5046702;28;20040;-87
2022/02/22 07:51:47;;;;;;;24.50;4.63;;;;;;;14.44;64.31;100556.16;5046311;28;20055;-87
2022/02/22 07:54:12;;;;;;;23.20;4.03;;;;;;;14.62;63.72;100548.53;5052721;28;20021;-88
2022/02/22 07:56:38;;;;;;;26.63;5.78;;;;;;;14.36;64.41;100542.72;5071506;28;20468;-88
2022/02/22 07:59:03;;;;;;;18.63;3.90;;;;;;;14.41;63.99;100533.44;5055852;28;20040;-87
2022/02/22 08:01:29;;;;;;;22.48;4.15;;;;;;;14.60;63.81;100546.03;5049272;28;20382;-88
2022/02/22 08:03:54;;;;;;;22.67;3.78;;;;;;;14.31;64.03;100564.22;5052505;28;20121;-88
2022/02/22 08:06:19;;;;;;;24.05;4.15;;;;;;;14.10;64.86;100577.38;5070995;28;20441;-87
2022/02/22 08:08:45;;;;;;;25.40;4.00;;;;;;;14.39;63.66;100576.81;5070287;28;20070;-87
2022/02/22 08:11:10;;;;;;;24.83;5.03;;;;;;;14.41;63.42;100580.16;5069054;28;20037;-87
2022/02/22 08:13:35;;;;;;;30.08;5.40;;;;;;;14.59;62.58;100594.56;5063293;28;20028;-88
2022/02/22 08:16:01;;;;;;;18.15;4.22;;;;;;;14.66;62.79;100593.06;5050078;28;20033;-88
2022/02/22 08:18:27;;;;;;;24.08;4.47;;;;;;;14.58;63.16;100595.50;5050525;28;20485;-87
2022/02/22 08:20:52;;;;;;;21.05;3.83;;;;;;;14.62;62.58;100581.09;5049999;28;20021;-88
2022/02/22 08:23:18;;;;;;;17.38;3.40;;;;;;;14.48;62.91;100557.56;5050381;28;20066;-88
2022/02/22 08:25:43;;;;;;;22.23;5.13;;;;;;;14.62;62.55;100559.94;5050043;28;20064;-89
2022/02/22 08:28:10;;;;;;;24.58;4.22;;;;;;;14.53;62.69;100568.59;5031344;28;20064;-87
2022/02/22 08:30:38;;;;;;;26.15;4.75;;;;;;;14.61;62.37;100568.84;5042736;28;20048;-87
2022/02/22 08:33:05;;;;;;;25.17;3.88;;;;;;;14.51;62.61;100590.81;5050208;28;20803;-87
2022/02/22 08:35:30;;;;;;;22.73;3.92;;;;;;;14.61;62.36;100597.91;5049662;28;20624;-88
2022/02/22 08:37:56;;;;;;;26.38;4.18;;;;;;;14.48;62.46;100584.00;5049964;28;20031;-87
2022/02/22 08:40:22;;;;;;;21.63;3.88;;;;;;;14.38;62.85;100583.91;5048744;28;20040;-87
2022/02/22 08:42:47;;;;;;;26.67;5.05;;;;;;;14.58;62.34;100589.41;5046067;28;20025;-88
2022/02/22 08:45:12;;;;;;;20.52;3.85;;;;;;;14.45;62.85;100594.78;5041663;28;20059;-87
2022/02/22 08:47:38;;;;;;;23.45;3.80;;;;;;;14.67;62.41;100607.97;5029874;28;20029;-89
2022/02/22 08:50:04;;;;;;;21.15;3.83;;;;;;;14.74;62.38;100616.25;5029380;28;20396;-88
2022/02/22 08:52:31;;;;;;;20.85;4.47;;;;;;;14.72;62.26;100602.31;5029553;28;20033;-88
2022/02/22 08:54:57;;;;;;;30.60;4.05;;;;;;;14.60;63.28;100606.78;5040673;28;20486;-87
2022/02/22 08:57:22;;;;;;;22.88;4.35;;;;;;;14.80;63.04;100599.03;5048978;28;20066;-87
2022/02/22 08:59:47;;;;;;;31.73;4.22;;;;;;;14.52;63.75;100593.34;5041284;28;20026;-88
2022/02/22 09:02:13;;;;;;;30.98;7.13;;;;;;;14.61;64.01;100595.28;5043281;28;20150;-88
2022/02/22 09:04:39;;;;;;;30.92;5.38;;;;;;;14.68;63.79;100596.44;5053869;28;20113;-88
2022/02/22 09:07:04;;;;;;;25.48;4.05;;;;;;;14.84;63.62;100589.88;5053987;28;20031;-88
2022/02/22 09:09:30;;;;;;;23.77;5.18;;;;;;;15.08;63.18;100593.09;5054040;28;20025;-89
2022/02/22 09:11:56;;;;;;;34.85;5.22;;;;;;;15.22;62.59;100593.75;5053946;28;20024;-88
2022/02/22 09:14:22;;;;;;;30.55;4.90;;;;;;;15.16;62.55;100589.00;5053000;28;20029;-89
2022/02/22 09:16:47;;;;;;;33.30;5.10;;;;;;;15.46;61.69;100581.09;5039721;28;20048;-88
2022/02/22 09:19:13;;;;;;;24.65;5.00;;;;;;;16.37;58.80;100580.28;5045351;28;20482;-88
2022/02/22 09:21:38;;;;;;;26.30;4.60;;;;;;;16.51;58.59;100569.31;5048988;28;20029;-86
2022/02/22 09:24:04;;;;;;;24.85;4.57;;;;;;;15.85;59.68;100557.44;5047707;28;20049;-87
2022/02/22 09:26:29;;;;;;;33.13;4.85;;;;;;;15.95;59.48;100573.38;5041128;28;20448;-87
2022/02/22 09:28:56;;;;;;;27.55;4.63;;;;;;;15.83;59.00;100555.91;5043349;28;20122;-87
2022/02/22 09:31:22;;;;;;;21.95;4.65;;;;;;;15.85;59.07;100541.56;5038984;28;20040;-87
2022/02/22 09:33:47;;;;;;;20.75;3.95;;;;;;;16.13;58.43;100544.41;5039899;28;20029;-88
2022/02/22 09:36:13;;;;;;;23.83;4.05;;;;;;;16.26;58.14;100552.13;5047435;28;20243;-88
2022/02/22 09:38:38;;;;;;;23.52;5.00;;;;;;;16.40;57.79;100541.09;5038998;28;20096;-88
2022/02/22 09:41:04;;;;;;;26.05;4.55;;;;;;;16.13;57.24;100547.06;5048328;28;20048;-87
2022/02/22 09:43:32;;;;;;;26.48;4.57;;;;;;;16.39;57.33;100546.53;5047416;28;20083;-88
2022/02/22 09:45:57;;;;;;;21.42;4.22;;;;;;;16.77;56.68;100539.56;5033346;28;20124;-88
2022/02/22 09:48:23;;;;;;;23.33;5.10;;;;;;;16.58;56.59;100535.13;5033318;28;20108;-88
2022/02/22 09:50:48;;;;;;;21.73;5.72;;;;;;;16.49;56.91;100535.94;5034462;28;20014;-87
2022/02/22 09:53:13;;;;;;;24.13;4.15;;;;;;;16.68;56.29;100540.41;5044283;28;20368;-88
2022/02/22 09:55:39;;;;;;;16.77;3.40;;;;;;;16.73;56.77;100548.78;5038612;28;20090;-88
2022/02/22 09:58:04;;;;;;;23.73;4.85;;;;;;;16.60;56.88;100547.25;5045508;28;20026;-87
2022/02/22 10:00:31;;;;;;;25.33;4.43;;;;;;;16.58;56.48;100554.50;5032747;28;20530;-88
2022/02/22 10:02:58;;;;;;;24.33;4.30;;;;;;;15.92;58.03;100551.66;5035269;28;20022;-88
2022/02/22 10:05:26;;;;;;;29.00;4.95;;;;;;;15.78;58.36;100540.44;5049953;28;20039;-89
2022/02/22 10:07:57;;;;;;;20.02;4.68;;;;;;;15.87;58.58;100552.03;5034121;28;20018;-89
2022/02/22 10:10:38;;;;;;;23.00;5.20;;;;;;;16.04;58.47;100551.38;5041368;28;20037;-89
2022/02/22 10:13:06;;;;;;;29.02;5.32;;;;;;;15.97;58.13;100539.63;5038105;28;20036;-88
2022/02/22 10:15:43;;;;;;;30.50;5.93;;;;;;;16.01;58.51;100537.56;5033922;28;20424;-89
2022/02/22 10:18:09;;;;;;;35.72;6.28;;;;;;;15.84;58.94;100537.25;5046265;28;20025;-87
2022/02/22 10:20:35;;;;;;;28.83;5.07;;;;;;;15.75;59.69;100524.81;5035260;28;20037;-89
2022/02/22 10:23:02;;;;;;;29.02;4.93;;;;;;;15.86;59.63;100526.53;5037340;28;20029;-87
2022/02/22 10:25:28;;;;;;;45.03;7.95;;;;;;;15.83;60.03;100532.91;5042201;28;20060;-87
2022/02/22 10:27:58;;;;;;;30.20;5.82;;;;;;;15.47;61.08;100524.56;5036377;28;20029;-87
2022/02/22 10:30:26;;;;;;;22.58;5.38;;;;;;;15.49;61.78;100521.78;5046161;28;20533;-86
2022/02/22 10:32:51;;;;;;;28.98;4.88;;;;;;;15.14;64.06;100524.81;5029193;28;20039;-87
2022/02/22 10:35:28;;;;;;;30.10;6.47;;;;;;;15.46;63.92;100525.53;5040136;28;20029;-87
2022/02/22 10:37:53;;;;;;;31.73;6.05;;;;;;;15.12;65.59;100524.09;5033185;28;20044;-88
2022/02/22 10:40:53;;;;;;;34.33;6.07;;;;;;;14.91;67.92;100522.31;5040148;28;20041;-88
2022/02/22 10:43:24;;;;;;;31.55;5.65;;;;;;;14.97;68.46;100521.81;5027132;28;20056;-87
2022/02/22 10:45:51;;;;;;;42.38;5.72;;;;;;;14.66;69.85;100529.66;5050934;28;20021;-88
2022/02/22 10:48:37;;;;;;;19.73;5.07;;;;;;;14.94;69.27;100529.16;5053072;28;20036;-88
2022/02/22 10:51:08;;;;;;;36.75;5.85;;;;;;;14.74;70.43;100520.25;5031537;28;20056;-88
2022/02/22 10:53:36;;;;;;;45.53;7.90;;;;;;;14.70;70.66;100519.66;5040597;28;20060;-89
2022/02/22 10:56:05;;;;;;;29.13;4.95;;;;;;;14.53;71.13;100510.47;5043964;28;20028;-88
2022/02/22 10:58:31;;;;;;;35.65;5.93;;;;;;;14.62;71.14;100540.63;5031774;28;20029;-89
2022/02/22 11:00:57;;;;;;;34.00;5.10;;;;;;;14.63;70.96;100522.00;5047460;28;20063;-89
2022/02/22 11:03:25;;;;;;;32.85;5.22;;;;;;;14.35;71.83;100525.19;5032069;28;20076;-88
2022/02/22 11:05:50;;;;;;;31.13;5.43;;;;;;;14.48;71.56;100529.34;5033019;28;20035;-88
2022/02/22 11:08:34;;;;;;;27.98;4.68;;;;;;;14.52;71.87;100543.13;5040006;28;20021;-89
2022/02/22 11:11:12;;;;;;;25.15;4.70;;;;;;;14.38;71.96;100559.28;5056227;28;20021;-89